Terminal Aerodrome Forecast
Issued by NWS

Home | Current Version | Previous Version | Text Only | Print | Product List | Glossary Off
Versions: 1 2 3 4 5 6 7 8 9 10 11 12 13

520
FTUS43 KBIS 151132
TAFDIK
TAF
KDIK 151132Z 1512/1612 27014KT P6SM SCT090 WS020/29035KT
     FM151600 29018G28KT P6SM SKC
     FM160000 28008KT P6SM SKC
     FM160200 24006KT P6SM SKC
     FM160900 22010KT P6SM SKC WS020/26045KT=

USA.gov is the U.S. government's official web portal to all federal, state and local government web resources and services.